Date,TemperatureHighF,TemperatureAvgF,TemperatureLowF,DewpointHighF,DewpointAvgF,DewpointLowF,HumidityHigh,HumidityAvg,HumidityLow,PressureMaxIn,PressureMinIn,WindSpeedMaxMPH,WindSpeedAvgMPH,GustSpeedMaxMPH,PrecipitationSumIn
2013-1-1,13.6,4.6,-9.0,5.1,-0.7,-12.0,90,78,59,30.30,30.16,9,1,15,0.00
2013-1-2,24.0,17.7,10.4,15.9,11.4,5.2,87,76,58,30.17,30.07,7,1,12,0.00
2013-1-3,24.2,19.4,11.0,18.9,14.8,6.0,83,82,79,30.20,30.05,15,6,20,0.00
2013-1-4,30.8,18.5,7.7,20.2,12.9,5.3,92,79,63,30.20,30.04,14,4,20,0.00
2013-1-5,21.7,5.6,0.4,17.9,3.1,-2.0,92,89,81,30.21,30.08,2,0,5,0.00
2013-1-8,37.2,33.9,29.5,31.5,28.6,25.5,87,81,73,30.06,29.87,10,2,18,0.00
2013-1-9,39.4,33.0,16.6,32.2,25.3,14.2,92,74,56,30.44,29.86,22,8,30,0.00
2013-1-10,37.6,26.3,12.8,33.9,22.6,10.9,96,87,64,30.50,29.92,6,1,7,0.31
2013-1-11,41.9,36.8,33.3,41.3,35.8,32.5,98,97,93,29.92,29.54,3,0,8,0.11
2013-1-12,43.6,31.8,19.1,41.6,26.9,12.5,98,82,71,30.02,29.52,21,6,30,0.01
2013-1-13,19.1,14.4,7.7,13.1,8.2,1.4,81,76,69,30.24,29.94,15,6,20,0.00
2013-1-14,19.8,10.6,3.8,10.9,5.1,0.3,91,79,65,30.47,30.23,14,3,19,0.00
2013-1-15,30.5,15.6,1.2,16.5,9.3,-1.0,92,77,52,30.46,30.04,9,1,15,0.00
2013-1-16,31.9,25.5,16.5,27.6,19.2,11.3,88,77,60,30.12,29.72,14,6,21,0.00
2013-1-17,20.9,12.6,2.8,11.2,4.5,0.0,89,70,54,30.43,30.12,18,4,20,0.00
2013-1-18,42.5,23.8,1.3,31.3,18.6,-1.0,89,81,63,30.45,29.78,12,2,20,0.05
2013-1-19,44.0,32.5,8.9,34.3,26.5,-1.0,94,79,61,29.93,29.57,29,7,46,0.01
2013-1-20,11.4,6.4,2.2,-1.0,-2.8,-5.0,71,64,54,30.32,29.94,24,9,32,0.00
2013-1-21,4.6,-2.8,-8.0,-2.0,-11.2,-16.0,80,66,56,30.35,30.17,23,9,32,0.00
2013-1-22,1.8,-5.0,-10.0,-9.0,-12.3,-16.0,85,70,56,30.43,30.33,14,4,16,0.00
2013-1-23,14.7,6.0,-5.0,9.0,-0.4,-8.0,84,74,60,30.51,30.14,19,5,28,0.00
2013-1-24,12.2,5.7,-3.0,7.3,-2.1,-8.0,87,70,56,30.73,30.40,10,2,14,0.00
2013-1-25,20.6,15.6,8.0,16.8,11.6,4.4,89,84,77,30.40,29.95,9,2,13,0.00
2013-1-26,26.2,13.2,1.4,13.4,6.4,-2.0,89,74,56,30.43,30.22,8,2,13,0.00
2013-1-27,32.4,32.2,31.4,31.3,31.0,30.1,96,95,95,29.99,29.88,5,2,6,0.00
2013-1-28,35.5,33.0,30.1,31.9,30.8,28.5,97,92,84,29.96,29.80,12,2,15,0.17
2013-1-29,42.5,35.4,31.4,41.9,34.3,29.6,98,96,92,29.81,29.52,12,2,16,0.11
2013-1-30,33.3,25.2,14.4,32.2,23.6,10.4,97,94,84,29.57,29.35,16,7,24,0.00
2013-1-31,15.3,8.7,0.2,10.4,3.0,-4.0,85,77,68,30.15,29.58,21,10,28,0.00
2013-2-1,3.1,-1.1,-8.0,-1.0,-7.8,-13.0,83,72,59,30.34,30.15,15,5,18,0.00
2013-2-2,17.5,5.1,-4.0,1.6,-1.6,-7.0,87,73,48,30.20,30.06,9,2,11,0.00
2013-2-3,15.0,6.9,-1.0,5.0,1.4,-4.0,88,78,62,30.08,29.97,15,4,24,0.00
2013-2-4,21.1,8.6,-2.0,4.2,0.5,-6.0,86,70,46,30.08,29.96,9,1,10,0.00
2013-2-5,24.8,14.4,-3.0,20.1,9.8,-6.0,92,82,70,30.14,29.77,15,3,17,0.00
2013-2-6,25.3,11.8,-8.0,22.9,8.0,-12.0,94,85,66,30.29,30.14,4,0,8,0.00
2013-2-7,28.1,24.8,21.7,27.1,23.3,19.9,96,94,93,30.17,30.02,12,4,19,0.00
2013-2-8,29.7,16.5,0.0,20.2,11.4,-3.0,93,81,56,30.42,30.17,16,3,20,0.00
2013-2-9,27.3,14.7,-7.0,23.0,11.3,-10.0,92,86,77,30.43,30.13,6,1,13,0.00
2013-2-10,39.2,30.9,19.7,38.4,29.4,18.2,98,94,88,30.13,29.33,8,1,15,0.57
2013-2-11,39.1,31.5,26.5,36.6,27.7,20.2,96,86,76,29.95,29.31,28,10,34,0.05
2013-2-12,29.4,23.2,16.5,21.0,17.7,14.5,93,80,66,30.06,29.84,17,5,19,0.00
2013-2-13,39.1,26.7,14.7,28.7,22.5,13.0,95,85,65,29.84,29.67,6,1,8,0.00
2013-2-14,33.1,29.9,20.1,30.5,26.9,12.2,96,89,71,30.05,29.58,15,5,21,0.03
2013-2-15,20.1,10.8,5.4,12.2,6.1,2.4,89,81,69,30.18,30.05,11,2,15,0.00
2013-2-17,20.9,16.4,12.7,11.3,7.2,4.3,72,67,62,30.11,29.99,5,1,8,0.00
2013-2-18,41.1,31.0,17.1,32.3,24.3,11.4,94,77,64,29.98,29.45,12,3,18,0.00
2013-2-19,29.5,13.4,6.1,27.2,7.5,-1.0,92,77,61,30.19,29.48,22,12,31,0.00
2013-2-20,26.2,14.2,2.6,10.4,4.7,-2.0,82,66,49,30.46,30.19,15,6,19,0.00
2013-2-21,23.4,14.7,0.0,20.2,10.5,-4.0,90,83,75,30.52,30.18,9,2,17,0.00
2013-2-22,31.2,26.1,22.0,27.7,23.8,18.9,95,91,84,30.18,29.81,5,1,17,0.00
2013-2-23,29.5,26.5,23.9,25.0,22.2,19.9,94,84,73,29.92,29.79,10,3,16,0.00
2013-2-24,35.6,27.2,12.4,25.3,21.8,10.2,93,80,61,30.15,29.92,8,3,11,0.05
2013-2-25,37.2,21.2,7.3,25.2,16.3,4.7,94,83,59,30.20,30.11,4,0,6,0.04
2013-2-26,37.2,26.4,11.4,27.8,21.7,9.1,95,83,66,30.13,29.77,18,4,30,0.01
2013-2-27,34.7,31.7,28.3,29.9,27.9,24.4,94,86,79,29.84,29.71,17,7,24,0.00
2013-2-28,33.1,30.3,24.2,28.9,23.2,15.7,89,75,64,30.19,29.84,21,6,22,0.00
2013-3-1,33.0,24.1,13.8,18.9,14.9,5.8,85,68,49,30.32,30.19,11,3,18,0.00
2013-3-2,32.2,17.8,10.1,12.8,8.1,4.6,81,67,39,30.32,30.21,14,2,16,0.00
2013-3-3,34.6,13.0,-4.0,11.3,3.8,-7.0,89,70,33,30.22,30.12,6,1,8,0.00
2013-3-4,31.8,18.1,0.1,19.2,11.1,-3.0,91,75,54,30.21,30.13,6,1,12,0.00
2013-3-5,30.6,26.3,23.4,25.3,20.6,17.0,93,79,68,30.17,29.99,13,3,18,0.00
2013-3-6,34.6,28.2,17.7,25.6,22.3,13.7,90,79,67,30.33,30.17,13,5,16,0.02
2013-3-7,37.3,21.7,10.7,18.7,13.9,7.8,93,74,44,30.47,30.33,11,1,14,0.00
2013-3-8,38.7,22.6,4.5,28.0,17.2,1.8,94,81,63,30.51,30.30,9,1,15,0.00
2013-3-9,38.4,32.1,22.2,33.1,28.9,20.6,96,88,77,30.30,29.81,7,2,10,0.46
2013-3-10,38.5,34.8,32.1,36.4,33.5,31.0,97,95,88,29.86,29.71,16,3,22,0.47
2013-3-11,35.5,31.9,26.2,33.2,29.4,20.4,97,91,77,29.74,29.55,17,5,23,0.14
2013-3-12,29.2,26.6,20.9,22.8,19.5,13.9,89,75,60,30.04,29.74,17,7,21,0.00
2013-3-13,33.1,24.2,17.3,15.7,10.9,6.5,86,59,34,30.31,30.04,19,8,25,0.00
2013-3-14,38.6,25.2,9.4,25.8,15.5,6.2,90,69,37,30.31,30.04,7,1,10,0.00
2013-3-15,37.1,29.9,22.4,32.8,26.7,20.1,93,88,79,30.04,29.89,8,1,8,0.04
2013-3-16,30.6,22.2,17.5,20.0,14.6,10.1,91,73,56,30.15,29.91,14,5,18,0.05
2013-3-17,28.5,18.9,10.0,14.6,8.5,1.8,85,64,43,30.35,30.08,7,2,14,0.00
2013-3-18,31.3,23.2,12.4,27.3,19.7,10.0,93,86,76,30.08,29.56,17,2,24,0.00
2013-3-19,25.7,18.4,13.0,12.3,9.3,5.3,84,68,51,30.01,29.64,27,13,36,0.00
2013-3-20,19.3,13.4,6.6,6.0,2.6,-2.0,72,61,53,30.09,30.00,19,9,23,0.00
2013-3-21,28.8,18.3,7.8,13.6,8.6,1.2,79,66,51,30.09,30.02,14,5,17,0.01
2013-3-22,38.9,21.6,3.4,19.8,12.3,0.2,90,69,43,30.10,30.03,13,1,15,0.00
2013-3-23,37.9,24.8,11.2,24.2,18.2,8.7,92,77,53,30.19,30.10,11,1,12,0.00
2013-3-24,34.8,30.4,27.0,24.3,22.4,18.4,80,72,60,30.13,29.87,13,3,22,0.00
2013-3-25,37.0,30.0,21.2,25.4,21.5,16.7,86,71,58,30.14,29.89,15,6,19,0.00
2013-3-26,40.2,34.0,28.7,27.3,23.9,21.7,76,67,52,30.25,30.14,11,5,14,0.00
2013-3-27,42.5,35.9,27.7,25.9,21.7,19.4,78,57,41,30.30,30.26,13,4,18,0.00
2013-3-28,44.6,33.4,20.6,23.9,19.7,15.2,89,60,36,30.35,30.27,10,2,15,0.00
2013-3-29,50.1,34.4,20.0,26.7,21.2,16.2,92,63,30,30.34,30.21,5,1,8,0.00
2013-3-30,48.7,36.3,25.5,39.7,30.6,22.4,96,80,59,30.22,29.80,10,1,19,0.16
2013-3-31,41.5,36.2,29.2,37.0,30.0,16.8,96,79,47,29.93,29.67,19,7,27,0.00
2013-4-1,31.8,27.1,21.6,17.8,14.1,11.0,68,58,47,30.17,29.93,20,8,25,0.00
2013-4-2,35.9,27.9,20.3,19.2,15.6,12.8,75,61,43,30.34,30.17,16,5,23,0.00
2013-4-3,42.2,30.2,15.8,22.3,15.7,9.1,89,58,28,30.50,30.24,9,1,11,0.00
2013-4-4,48.8,39.5,29.2,34.9,26.9,20.5,74,61,47,30.24,29.95,15,4,21,0.00
2013-4-5,42.9,34.7,26.5,29.2,23.0,19.7,91,63,42,30.27,30.08,8,1,10,0.00
2013-4-6,47.8,38.1,30.0,46.0,33.9,27.6,97,85,69,30.18,29.49,10,2,18,0.14
2013-4-7,44.8,37.6,35.5,41.3,33.0,30.0,90,84,78,29.88,29.51,15,8,27,0.00
2013-4-10,35.3,34.9,34.4,29.4,26.5,23.8,80,71,64,30.07,30.02,15,3,20,0.48
2013-4-11,34.7,32.3,29.4,31.3,28.6,23.9,95,87,66,30.03,29.68,15,4,25,0.25
2013-4-12,35.0,31.9,29.9,31.6,29.8,28.5,96,92,82,29.77,29.60,10,2,15,0.17
2013-4-13,37.2,32.9,28.1,30.8,27.2,23.5,93,80,62,30.00,29.75,20,6,22,0.12
2013-4-14,36.1,31.4,23.5,34.0,28.4,21.7,95,89,77,30.05,29.65,9,1,17,0.17
2013-4-15,56.6,43.3,34.7,46.9,35.2,29.2,97,76,43,29.95,29.62,25,5,36,0.32
2013-4-16,48.6,39.4,31.3,34.5,30.3,27.3,86,70,49,30.34,29.95,16,5,21,0.00
2013-4-17,39.3,36.5,31.4,36.7,32.4,27.3,95,85,77,30.39,29.96,12,2,16,0.13
2013-4-18,42.5,38.5,35.8,41.4,37.3,34.7,97,96,89,29.96,29.29,12,2,17,0.35
2013-4-22,52.0,49.6,44.5,45.0,42.6,37.7,88,77,61,30.18,29.99,9,2,11,0.05
2013-4-23,50.8,41.3,34.3,44.0,34.4,26.5,94,77,61,30.02,29.84,16,6,24,0.04
2013-4-24,51.3,40.2,27.4,32.7,25.7,19.4,87,59,35,30.04,29.92,19,4,31,0.00
2013-4-25,50.2,41.2,31.2,35.3,30.5,26.3,90,68,41,30.27,29.92,19,6,23,0.01
2013-4-26,70.9,52.9,29.2,47.0,38.1,26.3,94,61,31,30.26,30.06,22,4,24,0.02
2013-4-27,70.2,58.6,46.5,51.4,47.3,43.4,92,68,48,30.16,29.99,10,2,13,0.00
2013-4-28,72.5,57.2,38.6,48.6,43.7,37.5,97,66,34,29.99,29.74,10,2,14,0.01
2013-4-29,72.3,60.2,51.5,57.8,52.7,47.4,95,78,52,29.79,29.67,9,2,16,0.07
2013-4-30,86.8,71.4,58.1,61.5,55.9,41.9,88,62,32,29.84,29.58,18,5,25,0.03
2013-5-1,73.9,60.9,46.0,56.1,47.0,37.0,83,62,41,30.27,29.84,16,5,23,0.00
2013-5-2,47.2,41.9,34.8,37.2,34.0,31.1,89,74,64,30.34,30.25,18,8,24,0.02
2013-5-3,43.6,38.1,33.2,42.2,36.1,30.7,95,93,87,30.29,30.07,11,4,17,0.40
2013-5-4,70.9,55.0,41.4,53.4,46.2,39.8,94,75,44,30.10,30.03,10,2,13,0.00
2013-5-5,72.6,57.3,44.4,48.7,44.7,39.3,94,66,35,30.10,30.01,6,2,13,0.00
2013-5-6,75.7,56.1,43.3,48.8,43.7,39.7,95,68,28,30.09,29.98,8,2,14,0.00
2013-5-13,59.7,59.7,59.7,22.8,22.8,22.8,24,24,24,30.05,30.05,1,1,9,0.00
2013-5-19,83.8,74.4,67.8,68.2,64.7,62.5,84,73,54,29.73,29.65,8,1,12,0.00
2013-5-20,82.5,71.6,61.1,65.1,61.6,58.8,96,73,46,29.74,29.57,15,1,26,0.25
2013-5-21,76.2,69.7,62.4,64.9,60.3,57.0,94,73,56,29.65,29.53,13,2,20,0.01
2013-5-22,62.2,56.6,51.9,57.9,54.8,49.9,97,94,85,29.82,29.62,14,1,20,0.45
2013-5-23,60.7,51.5,42.5,50.2,39.8,30.7,94,68,33,30.33,29.82,19,6,24,0.08
2013-5-24,44.9,38.1,34.2,35.5,33.8,32.3,95,85,67,30.45,30.33,6,1,9,0.00
2013-5-28,57.8,56.7,55.8,56.0,55.2,54.6,97,95,93,29.79,29.72,4,1,7,0.16
2013-5-29,85.0,67.8,55.7,69.4,61.6,54.8,98,83,49,29.86,29.76,20,1,30,0.09
2013-5-30,83.6,71.9,60.6,73.0,66.3,59.7,98,84,62,29.85,29.63,17,2,21,0.52
2013-5-31,79.4,69.8,63.8,67.2,62.7,60.4,92,79,58,29.71,29.60,13,3,17,0.00
2013-6-1,76.8,67.4,59.5,69.3,62.3,58.5,97,85,61,29.64,29.53,11,1,19,0.12
2013-6-3,72.5,65.8,55.7,50.1,45.9,40.9,80,51,34,30.08,29.97,10,3,17,0.00
2013-6-4,57.4,52.7,48.6,52.2,49.2,43.3,96,88,71,30.19,30.07,7,1,9,0.67
2013-6-5,61.3,52.5,49.7,56.4,50.5,48.0,96,93,80,30.16,29.98,9,1,12,0.25
2013-6-6,55.0,52.4,50.6,52.2,49.8,44.5,97,91,74,30.00,29.96,8,2,12,0.52
2013-6-7,72.0,58.6,50.5,55.2,50.3,45.5,94,76,46,30.01,29.91,7,2,9,0.00
2013-6-8,72.7,60.5,52.8,58.4,54.0,46.3,97,81,41,30.00,29.90,6,1,8,0.00
2013-6-9,76.1,61.4,50.0,65.1,56.5,48.9,97,85,60,30.01,29.83,9,1,11,0.03
2013-6-10,80.8,68.1,57.5,67.1,61.7,56.0,96,81,57,29.85,29.75,6,1,10,0.00
2013-6-11,80.1,69.7,56.6,66.4,62.2,55.7,98,79,55,29.86,29.77,10,2,14,0.00
2013-6-12,78.5,66.8,59.5,66.1,61.5,57.1,96,84,59,29.89,29.68,9,1,12,0.15
2013-6-13,76.4,66.6,57.7,59.4,55.8,53.0,94,70,45,30.07,29.75,23,4,23,0.00
2013-6-14,75.2,60.4,50.7,56.3,51.5,49.1,95,75,44,30.13,30.06,5,1,9,0.00
2013-6-16,81.4,72.8,59.5,60.6,55.1,51.5,87,57,36,29.86,29.80,11,3,17,0.01
2013-6-17,78.8,64.4,53.8,65.6,58.6,52.6,97,83,60,29.99,29.82,13,1,19,0.07
2013-6-18,72.0,59.8,47.1,55.5,49.1,42.8,95,70,38,30.10,29.99,9,2,14,0.00
2013-6-19,78.2,61.6,42.3,60.4,50.5,41.5,98,71,38,30.14,30.02,6,1,9,0.00
2013-6-20,85.7,70.3,53.3,69.2,58.8,51.3,95,69,45,30.10,29.99,7,1,13,0.00
2013-6-21,69.6,66.4,64.9,64.0,60.5,57.1,96,82,65,30.04,29.82,12,1,22,0.93
2013-6-24,82.9,77.2,70.4,72.8,69.6,67.6,92,78,64,29.92,29.77,9,2,13,0.00
2013-6-25,83.4,73.2,66.0,72.4,67.8,64.5,96,84,64,29.85,29.74,7,1,10,0.03
2013-6-26,83.9,73.9,66.4,72.9,69.5,65.5,98,87,66,29.74,29.64,7,1,10,0.02
2013-6-27,85.0,73.7,63.4,72.2,67.5,61.0,98,83,52,29.73,29.60,18,3,25,0.21
2013-6-28,76.6,67.1,61.6,67.5,63.0,59.3,97,87,68,29.66,29.56,10,3,21,0.95
2013-6-29,73.3,65.2,61.3,63.5,59.8,52.9,96,84,63,29.86,29.62,12,3,17,0.05
2013-6-30,79.7,66.6,55.0,60.0,51.9,45.1,94,63,32,30.04,29.86,12,3,15,0.00
2013-7-1,82.6,68.2,54.0,61.5,55.7,52.1,96,68,39,30.13,30.04,8,1,13,0.00
2013-7-2,76.2,65.0,54.2,56.5,51.1,44.6,88,64,34,30.13,30.05,10,1,12,0.00
2013-7-3,75.5,65.3,57.1,63.2,57.6,52.2,93,77,61,30.08,29.98,5,1,11,0.00
2013-7-4,82.6,70.8,60.1,67.4,62.0,58.9,97,76,48,30.03,29.94,7,1,13,0.00
2013-7-5,85.5,73.2,57.8,67.9,62.0,56.9,98,72,44,30.00,29.90,12,2,15,0.00
2013-7-6,87.7,73.7,61.3,69.9,64.7,59.6,95,76,47,29.96,29.87,7,1,12,0.00
2013-7-7,88.8,75.3,64.2,76.3,69.1,63.0,97,83,61,29.91,29.81,6,1,10,0.00
2013-7-8,86.4,75.2,68.9,74.6,70.6,67.7,97,87,59,29.93,29.79,11,1,14,1.23
2013-7-9,82.2,74.3,65.2,74.5,69.8,64.3,98,86,68,29.95,29.70,12,2,15,0.07
2013-7-10,76.1,70.0,57.2,68.3,60.2,55.7,96,73,52,29.98,29.74,15,4,22,0.00
2013-7-11,83.7,66.1,53.9,63.8,56.8,52.7,98,77,38,30.09,29.98,5,1,10,0.00
2013-7-21,67.9,62.4,59.3,63.7,60.3,58.1,96,93,85,29.89,29.88,1,0,2,0.03
2013-7-22,85.1,70.5,55.7,71.7,65.0,54.8,97,84,58,29.88,29.60,14,2,18,0.05
2013-7-23,72.8,65.4,54.4,68.6,55.3,50.2,94,71,48,29.98,29.65,11,3,17,0.00
2013-7-24,75.8,62.4,48.5,57.2,52.3,47.1,97,73,44,30.07,29.98,5,1,9,0.00
2013-7-25,80.3,66.6,51.8,65.7,59.5,50.6,97,80,56,30.01,29.88,12,2,17,0.12
2013-7-26,75.1,65.1,53.6,67.3,60.2,50.4,97,86,53,29.91,29.76,11,2,21,0.46
2013-7-27,59.7,54.2,48.7,50.9,47.6,43.7,89,79,67,29.92,29.82,10,2,12,0.00
2013-7-28,67.0,57.2,51.6,55.8,51.5,46.9,92,82,66,29.98,29.81,13,3,17,0.00
2013-7-29,77.5,63.0,55.1,62.2,55.0,50.0,96,77,52,30.13,29.98,7,1,10,0.00
2013-7-30,77.0,64.8,52.5,65.8,59.7,51.6,98,85,58,30.16,30.04,4,0,8,0.00
2013-7-31,80.2,67.8,60.1,68.6,62.9,57.1,96,85,55,30.05,29.89,14,2,24,0.37
2013-8-1,77.1,66.9,53.0,60.2,56.6,52.1,98,73,45,29.94,29.86,11,2,16,0.01
2013-8-7,64.3,60.6,56.9,59.3,56.4,54.4,92,86,81,29.98,29.93,1,0,3,0.63
2013-8-8,79.2,62.7,47.1,63.8,54.1,46.2,98,78,41,30.02,29.95,4,0,8,0.00
2013-8-9,77.2,65.5,53.0,63.6,56.5,52.1,98,76,44,30.04,29.92,11,1,16,0.00
2013-8-10,73.6,63.9,56.9,59.0,56.2,52.9,95,78,51,30.13,30.04,4,0,8,0.00
2013-8-12,77.7,75.8,74.2,66.5,65.1,62.8,75,70,63,29.92,29.90,4,1,10,0.00
2013-8-13,69.6,62.7,47.0,52.2,49.3,45.0,94,64,48,30.17,30.08,7,1,14,0.00
2013-8-14,73.9,56.1,39.9,58.1,47.6,39.1,98,77,42,30.22,30.09,4,0,10,0.00
2013-8-15,79.3,61.1,45.1,60.7,52.4,44.2,98,77,42,30.12,30.03,7,0,13,0.00
2013-8-16,83.5,65.5,48.7,66.3,55.4,47.8,98,75,35,30.15,30.09,5,0,6,0.00
2013-8-17,84.2,62.8,50.3,63.5,55.5,49.4,98,81,41,30.21,30.15,4,0,5,0.00
2013-8-23,83.3,71.7,60.5,64.8,61.6,58.5,95,74,45,30.13,30.08,2,0,6,0.00
2013-8-24,84.7,69.9,53.6,70.0,61.3,52.7,98,77,44,30.22,30.08,6,0,9,0.00
2013-8-25,93.1,80.4,69.4,73.5,69.5,65.6,89,72,49,30.09,29.95,14,2,20,0.00
2013-8-26,94.0,77.8,68.2,79.1,70.9,65.8,96,81,51,30.08,29.85,9,0,17,0.36
2013-8-27,93.5,80.2,73.0,79.4,74.3,71.5,98,84,55,29.90,29.70,10,0,17,0.36
2013-8-28,86.0,75.7,69.7,73.6,70.7,68.5,97,86,62,30.00,29.82,2,0,6,0.01
2013-8-29,88.4,76.5,66.7,75.7,69.9,65.8,98,82,56,30.04,29.89,6,0,11,0.00
2013-8-30,84.3,75.5,64.1,75.6,69.1,61.2,94,82,61,29.89,29.75,9,1,14,0.00
2013-8-31,81.2,67.8,57.2,69.4,62.8,56.0,97,86,62,29.86,29.74,5,0,7,0.00
2013-9-1,82.4,70.0,60.2,72.5,63.7,59.3,98,82,53,29.80,29.67,12,1,15,0.00
2013-9-2,66.4,61.0,52.0,61.3,54.4,49.1,93,80,63,30.00,29.80,8,1,13,0.00
2013-9-3,77.3,59.3,42.1,55.3,49.6,41.0,98,75,39,30.07,29.95,7,0,12,0.00
2013-9-4,81.4,64.6,48.7,67.2,58.3,47.6,97,82,58,30.13,29.98,6,0,11,0.00
2013-9-5,76.8,61.9,49.4,58.1,53.1,47.6,97,76,46,30.28,30.13,6,0,9,0.00
2013-9-6,88.4,67.2,46.2,69.1,58.6,45.3,98,77,51,30.20,29.90,7,0,10,0.00
2013-9-7,90.3,73.7,65.6,76.9,67.5,63.2,95,82,54,30.01,29.82,11,0,21,0.15
2013-9-8,76.0,65.7,56.1,62.7,58.5,53.8,93,79,54,30.08,29.93,6,0,11,0.00
2013-9-9,88.9,74.3,62.0,77.4,68.0,58.7,93,82,67,29.95,29.65,5,0,11,0.00
2013-9-10,92.8,81.6,69.6,72.6,68.0,65.2,95,65,45,29.89,29.68,11,1,15,0.08
2013-9-11,85.1,72.4,59.1,68.0,63.7,56.7,97,77,42,29.97,29.87,8,1,13,0.00
2013-9-12,72.9,61.6,49.9,58.1,52.7,44.6,97,75,46,30.15,29.91,12,1,18,0.00
2013-9-13,67.3,52.1,42.1,49.2,43.2,39.4,96,75,44,30.24,30.13,6,0,18,0.00
2013-9-14,71.8,54.9,36.8,53.7,45.5,36.0,98,75,40,30.16,29.96,8,0,13,0.00
2013-9-15,66.6,57.0,46.6,58.2,53.0,41.4,97,87,72,30.29,29.97,5,0,12,0.66
2013-9-16,64.3,49.2,37.9,47.8,42.2,36.5,96,79,50,30.43,30.29,4,0,10,0.00
2013-9-17,69.2,52.6,36.1,56.5,47.9,35.3,98,86,57,30.36,30.09,7,0,8,0.01
2013-9-18,80.3,64.7,56.3,70.2,60.9,54.3,96,88,67,30.08,29.81,5,0,8,0.13
2013-9-19,82.6,71.0,62.6,73.2,67.5,61.7,98,89,70,29.83,29.64,10,0,16,0.10
2013-9-20,67.5,66.8,66.3,66.3,65.5,64.5,96,96,94,29.69,29.64,6,2,8,0.07
2013-9-23,62.2,48.8,42.3,52.6,46.1,40.9,96,91,71,30.07,30.04,0,0,2,0.00
2013-9-24,73.3,54.4,39.9,58.4,48.5,39.1,98,83,52,30.08,29.96,4,0,8,0.01
2013-9-25,71.2,53.5,40.9,57.0,48.7,40.1,98,86,53,30.03,29.96,5,0,7,0.00
2013-9-26,76.7,56.8,41.7,61.1,51.1,40.9,98,84,51,30.08,30.00,4,0,10,0.01